Decoded Metar for LFSI (ST.-DIZIER in FRANCE) (IATA:N/A) | Meteo·Mobile Aviation Weather
aviador You're here:

LFSI Decoded Metar

ST.-DIZIER in FRANCE
Report Time2019-01-19 07:00:00
UTC Time2019-01-19 07:16:17
Flight Rules vfr VFR
Wind100° at 05 kt
W.Decomp.*RWY 11: 4.9 kt HW 1 kt LCW
W.Rank100° ranks 1
Current wind is above 100° avg. (4.5)
Visibility9999 m
Phenomena:N/A
Clouds:N/A
Expected CloudBase > 800 ft AGL from Temp-Dew spread
CeilingNone
Temp-5°C (ISA -19)
Dew Point-7°C (86% RH)
AAT-9.6°C
QNH1014 hPa
Density Alt-1,880 ft
Elevation459 ft
Report Wrong Elevation
Raw Report
LFSI 190700Z AUTO 10005KT CAVOK M05/M07 Q1014=

Extra information for LFSI:More info

Metar Taf Metar & Taf Last 4 Metars F.Rules Stats Wind Profile Meteogram Temp Stats Airport Information Weather charts Add Link Nearby VenuesMetar ALERT Operation Metar Decoded Social comments